ADDS METAR Data INFO
IDs: Format: Raw Decoded Include TAF

Data at: 2032 UTC 22 Feb 2018

KGCN 221954Z 23015G24KT 10SM SCT050 M01/M12 A3002 RMK AO2 PK WND 21029/1944 SLP197 T10111122
KGCN 221854Z 23013G28KT 10SM FEW047 M02/M13 A3004 RMK AO2 PK WND 22028/1849 SLP201 T10171128
KGCN 221754Z 23010KT 10SM FEW043 M02/M12 A3005 RMK AO2 SLP202 T10221122 11022 21156 51008
KGCN 221654Z 23012KT 10SM CLR M03/M13 A3005 RMK AO2 SLP198 T10331128
KGCN 221554Z 00000KT 10SM CLR M06/M11 A3004 RMK AO2 SLP198 T10611106
KGCN 221454Z 00000KT 10SM CLR M13/M16 A3002 RMK AO2 SLP210 T11331161 52012
KGCN 221354Z 00000KT 10SM CLR M16/M18 A3001 RMK AO2 SLP205 T11561178
KGCN 221254Z AUTO 00000KT 10SM CLR M16/M17 A2999 RMK AO2 SLP197 T11561172
KGCN 221154Z AUTO 00000KT 10SM CLR M14/M17 A2998 RMK AO2 SLP189 T11441167 11094 21144 56006
KGCN 221054Z AUTO 00000KT 10SM CLR M14/M16 A2998 RMK AO2 SLP186 T11441161
KGCN 220954Z AUTO 00000KT 10SM CLR M13/M15 A2999 RMK AO2 SLP187 T11331150
KGCN 220854Z AUTO 00000KT 10SM SCT060 M13/M14 A3000 RMK AO2 SLP190 T11281144 56002
KGCN 220754Z AUTO 00000KT 10SM FEW060 M12/M14 A3000 RMK AO2 SLP187 T11221139
KGCN 220654Z AUTO 00000KT 10SM CLR M11/M13 A3000 RMK AO2 SLP184 T11061128 400061167
KGCN 220554Z AUTO 00000KT 10SM CLR M09/M12 A3001 RMK AO2 SLP186 T10941117 11006 21100 51004
KGCN 220454Z AUTO 00000KT 10SM SCT085 M07/M09 A3000 RMK AO2 SLP179 T10721094
KGCN 220354Z AUTO 00000KT 10SM OVC090 M06/M09 A3000 RMK AO2 SLP182 T10561094
KGCN 212354Z 31004KT 10SM BKN065 BKN075 BKN100 M01/M14 A2998 RMK AO2 SLP193 T10111144 10006 21022 50001
KGCN 212254Z 24010KT 10SM SCT060 BKN075 OVC090 00/M14 A2998 RMK AO2 SLP191 T00001139
KGCN 212154Z 24011G19KT 10SM BKN080 OVC090 00/M16 A2998 RMK AO2 SLP189 T00001156
KGCN 212054Z 19004G16KT 10SM OVC085 M01/M13 A2998 RMK AO2 SLP188 T10061133 58012
KGCN 211954Z 22008G17KT 10SM OVC090 M01/M13 A3000 RMK AO2 SLP198 T10061128
KGCN 211854Z 23010KT 10SM BKN090 OVC110 M01/M14 A3001 RMK AO2 SLP204 T10111139
KGCN 211754Z VRB03KT 10SM BKN090 M02/M15 A3002 RMK AO2 SLP206 T10221150 11017 21156 51003
KGCN 211654Z 15006KT 10SM FEW095 M02/M17 A3002 RMK AO2 SLP203 T10221167
KGCN 211554Z 09005KT 10SM FEW090 M04/M16 A3001 RMK AO2 SLP204 T10441161
KGCN 211454Z 08003KT 10SM FEW100 M09/M13 A3001 RMK AO2 SLP209 T10941133 53001
KGCN 211354Z 00000KT 10SM OVC100 M12/M16 A3000 RMK AO2 SLP214 T11221156
KGCN 211254Z AUTO 00000KT 10SM BKN100 M14/M17 A2999 RMK AO2 SLP201 T11391167